Time;durP1;ratioP1;P1;durP2;ratioP2;P2;SDS_P1;SDS_P2;PMS_P1;PMS_P2;Temp;Humidity;BMP_temperature;BMP_pressure;BME280_temperature;BME280_humidity;BME280_pressure;Samples;Min_cycle;Max_cycle;Signal;HPM_P1;HPM_P2
2022/08/20 00:00:13;;;;;;;12.20;2.50;;;23.80;84.60;;;;;;6126924;23;20077;-75
2022/08/20 00:02:53;;;;;;;10.13;3.03;;;23.80;84.70;;;;;;6126906;23;20492;-75
2022/08/20 00:05:28;;;;;;;15.38;2.50;;;23.70;84.60;;;;;;6126796;23;19998;-74
2022/08/20 00:07:54;;;;;;;9.73;2.95;;;23.70;84.60;;;;;;6126695;23;19998;-76
2022/08/20 00:10:21;;;;;;;8.45;3.00;;;23.70;85.20;;;;;;6126743;23;20098;-76
2022/08/20 00:12:49;;;;;;;11.60;3.00;;;23.60;85.60;;;;;;6127096;23;19998;-75
2022/08/20 00:15:20;;;;;;;12.13;2.97;;;23.60;85.70;;;;;;6126469;23;20069;-76
2022/08/20 00:17:50;;;;;;;12.55;3.10;;;23.60;85.80;;;;;;6126740;23;20006;-74
2022/08/20 00:20:18;;;;;;;9.43;3.15;;;23.60;85.70;;;;;;6126703;23;20036;-76
2022/08/20 00:22:44;;;;;;;10.43;3.20;;;23.50;85.80;;;;;;6126666;23;20061;-76
2022/08/20 00:25:11;;;;;;;11.13;3.50;;;23.50;85.80;;;;;;6126683;23;20005;-75
2022/08/20 00:27:36;;;;;;;13.20;3.40;;;23.50;86.00;;;;;;6126368;23;20102;-76
2022/08/20 00:30:05;;;;;;;9.52;3.08;;;23.40;86.00;;;;;;6100291;23;20083;-76
2022/08/20 00:32:41;;;;;;;8.55;2.90;;;23.40;85.90;;;;;;6126397;23;20053;-75
2022/08/20 00:35:07;;;;;;;13.65;3.50;;;23.40;86.20;;;;;;6126241;23;20014;-75
2022/08/20 00:37:33;;;;;;;11.38;2.63;;;23.40;86.20;;;;;;6126433;23;19998;-74
2022/08/20 00:39:59;;;;;;;7.82;2.70;;;23.40;86.20;;;;;;6126417;23;20006;-76
2022/08/20 00:42:25;;;;;;;14.32;3.10;;;23.40;86.30;;;;;;6126459;23;20077;-74
2022/08/20 00:44:51;;;;;;;12.20;3.30;;;23.40;86.40;;;;;;6126547;23;20421;-74
2022/08/20 00:47:16;;;;;;;5.78;2.72;;;23.30;86.40;;;;;;6126203;23;20002;-75
2022/08/20 00:49:44;;;;;;;15.73;3.05;;;23.30;86.50;;;;;;6100190;23;20034;-76
2022/08/20 00:52:17;;;;;;;11.13;3.72;;;23.30;86.50;;;;;;6125003;23;20010;-75
2022/08/20 00:54:48;;;;;;;6.88;3.42;;;23.30;86.70;;;;;;6126586;23;20010;-75
2022/08/20 00:57:33;;;;;;;9.68;3.10;;;23.30;86.70;;;;;;6126284;23;20044;-75
2022/08/20 01:00:01;;;;;;;8.18;3.17;;;23.30;86.70;;;;;;6123272;23;20707;-75
2022/08/20 01:02:30;;;;;;;11.48;3.88;;;23.30;86.70;;;;;;6123002;23;20432;-75
2022/08/20 01:04:56;;;;;;;9.43;3.38;;;23.30;86.80;;;;;;6124760;23;20069;-76
2022/08/20 01:07:31;;;;;;;12.00;2.80;;;23.30;86.70;;;;;;6125633;23;20012;-74
2022/08/20 01:09:58;;;;;;;13.95;3.00;;;23.30;86.90;;;;;;6126242;23;20002;-75
2022/08/20 01:12:24;;;;;;;6.55;2.58;;;23.30;87.00;;;;;;6126330;23;20137;-76
2022/08/20 01:14:51;;;;;;;9.88;2.80;;;23.20;87.00;;;;;;6125696;23;20018;-75
2022/08/20 01:17:22;;;;;;;12.48;3.10;;;23.20;87.00;;;;;;6126279;23;20026;-76
2022/08/20 01:19:56;;;;;;;9.05;2.80;;;23.30;87.00;;;;;;6126052;23;20016;-75
2022/08/20 01:25:59;;;;;;;9.27;2.88;;;23.30;87.00;;;;;;6037073;23;20510;-74
2022/08/20 01:28:48;;;;;;;12.80;3.17;;;23.20;87.10;;;;;;6036485;23;20051;-75
2022/08/20 01:31:18;;;;;;;9.05;3.40;;;23.20;87.30;;;;;;6106835;23;20013;-74
2022/08/20 01:33:44;;;;;;;11.00;3.28;;;23.20;87.40;;;;;;6126208;23;20006;-74
2022/08/20 01:36:11;;;;;;;8.10;3.22;;;23.20;87.50;;;;;;6125964;23;20432;-76
2022/08/20 01:38:37;;;;;;;13.63;2.75;;;23.20;87.60;;;;;;6126128;23;20333;-76
2022/08/20 01:41:06;;;;;;;5.82;2.40;;;23.10;87.50;;;;;;6126155;23;20032;-75
2022/08/20 01:43:32;;;;;;;12.43;2.50;;;23.10;87.40;;;;;;6126019;23;20013;-76
2022/08/20 01:45:58;;;;;;;11.60;2.70;;;23.10;87.30;;;;;;6126242;23;20006;-76
2022/08/20 01:48:24;;;;;;;9.65;3.30;;;23.10;87.20;;;;;;6126249;23;20513;-76
2022/08/20 01:51:03;;;;;;;15.00;2.60;;;23.10;87.00;;;;;;6100305;23;20025;-76
2022/08/20 01:53:40;;;;;;;6.85;2.05;;;23.10;86.90;;;;;;6125815;23;20001;-74
2022/08/20 01:56:09;;;;;;;13.40;2.55;;;23.10;86.80;;;;;;6125837;23;20444;-75
2022/08/20 01:58:39;;;;;;;10.57;2.92;;;23.10;86.70;;;;;;6126135;23;20009;-74
2022/08/20 02:01:05;;;;;;;10.52;2.72;;;23.00;86.70;;;;;;6126071;23;20314;-74
2022/08/20 02:03:31;;;;;;;12.05;3.85;;;23.00;86.80;;;;;;6100006;23;20056;-76
2022/08/20 02:06:00;;;;;;;10.77;2.63;;;23.00;86.80;;;;;;6125704;23;20410;-76
2022/08/20 02:08:26;;;;;;;14.95;2.50;;;23.00;86.80;;;;;;6126203;23;20002;-74
2022/08/20 02:10:54;;;;;;;8.10;2.78;;;23.00;86.80;;;;;;6125934;23;20002;-75
2022/08/20 02:13:20;;;;;;;15.02;2.58;;;23.00;86.70;;;;;;6126012;23;20323;-74
2022/08/20 02:15:46;;;;;;;9.85;2.97;;;23.00;86.70;;;;;;6125621;23;20097;-75
2022/08/20 02:18:14;;;;;;;7.10;2.70;;;23.00;86.60;;;;;;6126164;23;20081;-75
2022/08/20 02:20:42;;;;;;;10.32;2.45;;;22.90;86.70;;;;;;6125790;23;20332;-75
2022/08/20 02:23:10;;;;;;;12.70;2.78;;;22.90;86.70;;;;;;6126034;23;20065;-75
2022/08/20 02:25:38;;;;;;;5.82;2.40;;;22.90;86.60;;;;;;6125868;23;20013;-75
2022/08/20 02:28:08;;;;;;;9.70;2.25;;;22.90;86.50;;;;;;6125593;23;20516;-74
2022/08/20 02:30:40;;;;;;;9.70;2.85;;;22.90;86.60;;;;;;6125774;23;20013;-76
2022/08/20 02:33:09;;;;;;;13.13;2.70;;;22.90;86.70;;;;;;6125977;23;20503;-75
2022/08/20 02:35:37;;;;;;;8.38;2.50;;;22.80;86.50;;;;;;6125935;23;20344;-75
2022/08/20 02:38:02;;;;;;;9.60;2.30;;;22.80;86.50;;;;;;6125613;23;19998;-75
2022/08/20 02:40:30;;;;;;;10.73;3.10;;;22.80;86.60;;;;;;6127215;23;20013;-75
2022/08/20 02:42:56;;;;;;;8.88;2.67;;;22.70;86.70;;;;;;6101404;23;20006;-74
2022/08/20 02:45:22;;;;;;;11.88;2.70;;;22.70;86.70;;;;;;6127280;23;20006;-75
2022/08/20 02:47:49;;;;;;;9.05;3.08;;;22.70;86.80;;;;;;6127661;23;20022;-77
2022/08/20 02:50:18;;;;;;;14.48;3.13;;;22.70;86.80;;;;;;6127676;23;20002;-75
2022/08/20 02:52:44;;;;;;;7.32;2.70;;;22.70;86.90;;;;;;6127174;23;20025;-75
2022/08/20 02:55:11;;;;;;;9.82;3.08;;;22.70;86.90;;;;;;6126797;23;20013;-74
2022/08/20 02:57:38;;;;;;;15.88;3.10;;;22.70;86.80;;;;;;6101655;23;20013;-75
2022/08/20 03:00:07;;;;;;;8.27;2.83;;;22.70;86.80;;;;;;6127495;23;20001;-75
2022/08/20 03:02:33;;;;;;;13.27;3.08;;;22.70;86.80;;;;;;6127681;23;20006;-76
2022/08/20 03:04:58;;;;;;;7.88;2.72;;;22.60;86.70;;;;;;6127257;23;20329;-75
2022/08/20 03:07:24;;;;;;;9.32;2.65;;;22.60;86.60;;;;;;6127346;23;20037;-75
2022/08/20 03:09:50;;;;;;;9.98;2.60;;;22.60;86.60;;;;;;6127364;23;20006;-74
2022/08/20 03:12:15;;;;;;;11.73;2.47;;;22.60;86.60;;;;;;6127545;23;20005;-74
2022/08/20 03:14:41;;;;;;;8.60;2.67;;;22.60;86.60;;;;;;6127580;23;20009;-76
2022/08/20 03:17:07;;;;;;;13.10;3.53;;;22.60;86.70;;;;;;6126963;23;20013;-76
2022/08/20 03:19:32;;;;;;;11.82;2.80;;;22.50;86.80;;;;;;6127095;23;20005;-77
2022/08/20 03:21:58;;;;;;;12.18;2.97;;;22.60;87.00;;;;;;6127290;23;20002;-76
2022/08/20 03:24:24;;;;;;;11.98;2.95;;;22.50;87.00;;;;;;6127447;23;20385;-74
2022/08/20 03:26:49;;;;;;;16.42;3.20;;;22.50;87.00;;;;;;6127223;23;20006;-74
2022/08/20 03:29:15;;;;;;;9.05;2.58;;;22.50;87.10;;;;;;6127025;23;20444;-76
2022/08/20 03:31:41;;;;;;;7.43;3.33;;;22.50;87.10;;;;;;6101347;23;20017;-75
2022/08/20 03:34:07;;;;;;;10.18;3.15;;;22.50;87.10;;;;;;6127081;23;20072;-74
2022/08/20 03:36:32;;;;;;;13.38;2.88;;;22.50;87.00;;;;;;6126960;23;20014;-73
2022/08/20 03:39:02;;;;;;;13.05;2.60;;;22.50;87.00;;;;;;6125324;23;20429;-74
2022/08/20 03:41:27;;;;;;;10.75;2.97;;;22.50;86.90;;;;;;6127304;23;20496;-76
2022/08/20 03:43:53;;;;;;;11.98;3.30;;;22.40;86.70;;;;;;6126736;23;20033;-75
2022/08/20 03:46:19;;;;;;;9.85;2.67;;;22.50;86.60;;;;;;6126830;23;20421;-75
2022/08/20 03:48:45;;;;;;;11.13;3.17;;;22.40;86.50;;;;;;6127050;23;19998;-75
2022/08/20 03:51:11;;;;;;;8.50;2.70;;;22.40;86.60;;;;;;6126441;23;20001;-75
2022/08/20 03:53:37;;;;;;;10.73;2.75;;;22.40;86.40;;;;;;6127010;23;20005;-76
2022/08/20 03:56:04;;;;;;;12.98;2.40;;;22.40;86.40;;;;;;6126824;23;20014;-76
2022/08/20 03:58:33;;;;;;;11.15;2.42;;;22.30;86.40;;;;;;6127316;23;20096;-75
2022/08/20 04:00:59;;;;;;;10.30;2.90;;;22.20;86.50;;;;;;6126673;23;20421;-75
2022/08/20 04:03:25;;;;;;;9.68;2.25;;;22.20;86.70;;;;;;6126924;23;20006;-76
2022/08/20 04:05:52;;;;;;;9.00;2.45;;;22.20;86.70;;;;;;6127029;23;20009;-75
2022/08/20 04:08:22;;;;;;;14.00;2.33;;;22.20;86.60;;;;;;6126857;23;20010;-75
2022/08/20 04:10:49;;;;;;;9.77;2.80;;;22.20;86.30;;;;;;6126691;23;20306;-75
2022/08/20 04:13:17;;;;;;;11.68;2.15;;;22.20;85.90;;;;;;6126895;23;20006;-76
2022/08/20 04:15:44;;;;;;;8.10;2.63;;;22.20;85.60;;;;;;6126957;23;20096;-76
2022/08/20 04:18:11;;;;;;;11.38;2.55;;;22.20;85.30;;;;;;6127139;23;20010;-74
2022/08/20 04:20:39;;;;;;;8.45;2.35;;;22.20;85.10;;;;;;6126784;23;20006;-76
2022/08/20 04:23:06;;;;;;;14.02;2.35;;;22.20;85.00;;;;;;6126746;23;20001;-75
2022/08/20 04:25:33;;;;;;;12.52;2.70;;;22.20;85.00;;;;;;6126912;23;20096;-74
2022/08/20 04:28:00;;;;;;;9.38;2.13;;;22.20;84.90;;;;;;6126412;23;20049;-74
2022/08/20 04:30:27;;;;;;;8.23;2.63;;;22.20;84.90;;;;;;6126304;23;20454;-75
2022/08/20 04:32:54;;;;;;;8.55;2.88;;;22.20;85.20;;;;;;6126340;23;19998;-75
2022/08/20 04:35:20;;;;;;;14.27;3.92;;;22.20;85.60;;;;;;6126464;23;20017;-74
2022/08/20 04:37:46;;;;;;;9.32;3.20;;;22.20;86.00;;;;;;6126507;23;20045;-74
2022/08/20 04:43:03;;;;;;;10.60;3.63;;;22.20;86.40;;;;;;6126348;23;20141;-74
2022/08/20 04:45:30;;;;;;;13.25;3.90;;;22.10;86.50;;;;;;6126459;23;20010;-75
2022/08/20 04:47:56;;;;;;;21.70;4.15;;;22.10;86.50;;;;;;6126470;23;20002;-74
2022/08/20 04:50:22;;;;;;;20.88;4.32;;;22.10;86.60;;;;;;6126811;23;20013;-74
2022/08/20 04:52:48;;;;;;;16.88;4.50;;;22.10;86.70;;;;;;6126548;23;20040;-74
2022/08/20 04:55:16;;;;;;;18.73;4.10;;;22.00;86.80;;;;;;6126326;23;20089;-76
2022/08/20 04:57:42;;;;;;;19.70;4.50;;;22.00;86.90;;;;;;6126234;23;19998;-76
2022/08/20 05:00:13;;;;;;;29.48;4.20;;;22.00;86.90;;;;;;6126564;23;20010;-76
2022/08/20 05:02:38;;;;;;;25.20;4.53;;;22.00;87.20;;;;;;6126364;23;20005;-75
2022/08/20 05:05:07;;;;;;;26.42;4.60;;;22.00;87.10;;;;;;6126395;23;20006;-75
2022/08/20 05:07:41;;;;;;;23.92;4.88;;;22.00;87.20;;;;;;6126167;23;20004;-74
2022/08/20 05:10:09;;;;;;;21.25;3.95;;;22.00;87.30;;;;;;6126174;23;20032;-74
2022/08/20 05:12:35;;;;;;;17.65;3.60;;;22.00;87.50;;;;;;6126364;23;20357;-74
2022/08/20 05:15:01;;;;;;;18.60;3.90;;;22.00;87.70;;;;;;6126057;23;20010;-74
2022/08/20 05:17:28;;;;;;;13.82;3.25;;;22.00;87.80;;;;;;6126208;23;20059;-75
2022/08/20 05:19:53;;;;;;;14.68;3.33;;;22.00;88.00;;;;;;6126255;23;20138;-75
2022/08/20 05:22:19;;;;;;;17.58;3.55;;;22.00;88.20;;;;;;6126535;23;20042;-75
2022/08/20 05:24:45;;;;;;;10.07;3.22;;;22.00;88.40;;;;;;6126046;23;20004;-74
2022/08/20 05:27:11;;;;;;;16.70;3.55;;;22.10;88.40;;;;;;6126239;23;20020;-75
2022/08/20 05:29:36;;;;;;;8.63;3.03;;;22.10;88.30;;;;;;6125873;23;20348;-74
2022/08/20 05:32:03;;;;;;;7.63;3.10;;;22.10;88.10;;;;;;6126018;23;20057;-74
2022/08/20 05:34:28;;;;;;;14.30;3.38;;;22.20;88.10;;;;;;6125750;23;20025;-74
2022/08/20 05:36:54;;;;;;;12.20;2.53;;;22.20;87.90;;;;;;6099904;23;20010;-75
2022/08/20 05:39:21;;;;;;;8.10;2.90;;;22.20;87.90;;;;;;6125996;23;20492;-75
2022/08/20 05:41:50;;;;;;;10.82;2.97;;;22.30;87.80;;;;;;6125889;23;20033;-75
2022/08/20 05:44:16;;;;;;;12.02;2.92;;;22.30;87.70;;;;;;6125208;23;20417;-75
2022/08/20 05:46:44;;;;;;;13.35;3.13;;;22.30;87.60;;;;;;6125535;23;20005;-74
2022/08/20 05:49:13;;;;;;;14.82;3.28;;;22.30;87.50;;;;;;6099444;23;20373;-75
2022/08/20 05:51:38;;;;;;;9.65;3.25;;;22.40;87.30;;;;;;6125384;23;20134;-74
2022/08/20 05:54:05;;;;;;;10.98;3.20;;;22.40;87.40;;;;;;6125540;23;20002;-74
2022/08/20 05:56:31;;;;;;;9.18;2.78;;;22.50;87.50;;;;;;6099902;23;20448;-74
2022/08/20 05:59:00;;;;;;;12.88;3.55;;;22.50;87.40;;;;;;6125961;23;20009;-74
2022/08/20 06:01:26;;;;;;;13.95;2.95;;;22.50;87.40;;;;;;6125832;23;20033;-75
2022/08/20 06:06:36;;;;;;;11.15;2.30;;;22.60;86.80;;;;;;6125725;23;20013;-74
2022/08/20 06:09:02;;;;;;;6.10;2.10;;;22.60;86.10;;;;;;6125886;23;20009;-74
2022/08/20 06:11:28;;;;;;;9.90;2.60;;;22.60;85.70;;;;;;6125846;23;19998;-75
2022/08/20 06:13:54;;;;;;;13.82;2.88;;;22.70;85.30;;;;;;6125791;23;20037;-73
2022/08/20 06:16:19;;;;;;;10.93;2.47;;;22.70;85.10;;;;;;6127290;23;20097;-74
2022/08/20 06:18:45;;;;;;;6.53;2.40;;;22.70;85.00;;;;;;6127034;23;20100;-74
2022/08/20 06:21:11;;;;;;;10.13;2.65;;;22.80;85.10;;;;;;6127762;23;20005;-73
2022/08/20 06:23:36;;;;;;;438.08;62.58;;;22.80;85.00;;;;;;6125763;23;20033;-79
2022/08/20 06:26:02;;;;;;;20.02;5.32;;;22.80;85.00;;;;;;6127541;23;20365;-75
2022/08/20 06:28:28;;;;;;;16.17;4.35;;;22.90;84.90;;;;;;6101422;23;20022;-74
2022/08/20 06:30:53;;;;;;;9.40;2.97;;;22.80;84.40;;;;;;6127573;23;20057;-74
2022/08/20 06:33:19;;;;;;;9.40;2.75;;;22.90;84.20;;;;;;6125905;23;20010;-75
2022/08/20 06:35:45;;;;;;;7.93;2.20;;;23.00;83.50;;;;;;6127527;23;20010;-76
2022/08/20 06:38:11;;;;;;;6.90;2.75;;;23.00;82.90;;;;;;6127511;23;20333;-75
2022/08/20 06:40:37;;;;;;;16.85;3.53;;;23.10;82.40;;;;;;6127319;23;20002;-75
2022/08/20 06:43:03;;;;;;;9.68;2.97;;;23.10;82.20;;;;;;6127417;23;20002;-73
2022/08/20 06:45:31;;;;;;;8.32;3.05;;;23.10;82.10;;;;;;6127434;23;20002;-74
2022/08/20 06:48:00;;;;;;;11.65;2.80;;;23.20;82.00;;;;;;6127444;23;20072;-74
2022/08/20 06:50:37;;;;;;;8.90;2.55;;;23.20;81.60;;;;;;6126618;23;20444;-74
2022/08/20 06:53:04;;;;;;;4.90;2.20;;;23.30;81.10;;;;;;6125526;23;20010;-76
2022/08/20 06:55:30;;;;;;;9.82;2.33;;;23.40;80.70;;;;;;6123929;23;20010;-74
2022/08/20 06:57:58;;;;;;;8.38;2.22;;;23.40;80.50;;;;;;6126785;23;20044;-75
2022/08/20 07:00:24;;;;;;;10.80;3.05;;;23.40;80.10;;;;;;6126965;23;20013;-74
2022/08/20 07:02:49;;;;;;;10.05;2.13;;;23.50;79.80;;;;;;6128043;23;20010;-75
2022/08/20 07:05:15;;;;;;;8.88;2.22;;;23.50;79.60;;;;;;6127734;23;19998;-75
2022/08/20 07:07:45;;;;;;;8.40;2.28;;;23.60;79.40;;;;;;6126480;23;20329;-75
2022/08/20 07:10:13;;;;;;;15.85;2.88;;;23.60;79.40;;;;;;6127043;23;20005;-75
2022/08/20 07:12:38;;;;;;;15.18;2.63;;;23.60;79.00;;;;;;6127776;23;20013;-75
2022/08/20 07:15:09;;;;;;;8.77;1.98;;;23.70;78.60;;;;;;6127450;23;20014;-75
2022/08/20 07:17:36;;;;;;;8.57;2.30;;;23.70;78.20;;;;;;6127602;23;20014;-75
2022/08/20 07:20:07;;;;;;;9.65;2.53;;;23.70;78.10;;;;;;6127697;23;20226;-75
2022/08/20 07:22:36;;;;;;;11.88;2.60;;;23.80;78.20;;;;;;6127520;23;20073;-75
2022/08/20 07:25:04;;;;;;;9.30;2.08;;;23.80;78.10;;;;;;6127428;23;20002;-74
2022/08/20 07:27:29;;;;;;;13.55;2.35;;;23.90;78.00;;;;;;6127364;23;20056;-75
2022/08/20 07:32:39;;;;;;;6.35;2.20;;;24.00;77.60;;;;;;6127446;23;20033;-74
2022/08/20 07:35:08;;;;;;;16.77;2.65;;;24.00;77.20;;;;;;6127362;23;20421;-76
2022/08/20 07:37:42;;;;;;;10.65;2.50;;;24.10;77.10;;;;;;6127490;23;20005;-74
2022/08/20 07:40:22;;;;;;;9.65;2.15;;;24.20;76.70;;;;;;6127224;23;20002;-75
2022/08/20 07:42:49;;;;;;;13.23;2.38;;;24.20;76.30;;;;;;6127415;23;20006;-75
2022/08/20 07:45:17;;;;;;;12.52;2.25;;;24.20;75.90;;;;;;6127664;23;20118;-76
2022/08/20 07:47:44;;;;;;;16.85;3.15;;;24.30;75.70;;;;;;6127449;23;20009;-76
2022/08/20 07:50:13;;;;;;;15.18;2.70;;;24.30;75.40;;;;;;6127422;23;20013;-75
2022/08/20 07:52:39;;;;;;;17.33;2.60;;;24.40;75.60;;;;;;6127208;23;20013;-75
2022/08/20 07:55:10;;;;;;;7.85;2.33;;;24.50;76.10;;;;;;6101074;23;20437;-75
2022/08/20 07:57:38;;;;;;;20.03;2.50;;;24.50;76.00;;;;;;6125280;23;20093;-76
2022/08/20 08:00:07;;;;;;;20.27;2.72;;;24.60;75.70;;;;;;6127286;23;20300;-75
2022/08/20 08:02:34;;;;;;;42.15;5.55;;;24.60;76.00;;;;;;6127354;23;20008;-75
2022/08/20 08:05:00;;;;;;;32.75;3.40;;;24.70;75.90;;;;;;6126935;23;20005;-75
2022/08/20 08:07:27;;;;;;;33.50;3.58;;;24.70;75.60;;;;;;6127171;23;20610;-75
2022/08/20 08:09:54;;;;;;;16.60;3.17;;;24.80;75.50;;;;;;6127614;23;20369;-75
2022/08/20 08:12:20;;;;;;;10.85;2.60;;;24.90;75.10;;;;;;6127042;23;20069;-75
2022/08/20 08:14:48;;;;;;;19.48;2.80;;;24.90;74.80;;;;;;6126779;23;20056;-75
2022/08/20 08:17:15;;;;;;;9.90;2.03;;;25.00;74.80;;;;;;6126728;23;20002;-75
2022/08/20 08:19:45;;;;;;;10.38;2.53;;;25.00;73.90;;;;;;6127230;23;20002;-75
2022/08/20 08:22:15;;;;;;;14.00;3.13;;;25.10;72.70;;;;;;6127008;23;20009;-74
2022/08/20 08:24:42;;;;;;;7.28;1.90;;;25.10;73.10;;;;;;6126854;23;20026;-75
2022/08/20 08:27:08;;;;;;;14.40;2.22;;;25.20;73.10;;;;;;6126894;23;20006;-75
2022/08/20 08:29:37;;;;;;;5.80;2.13;;;25.20;73.50;;;;;;6126690;23;20488;-75
2022/08/20 08:32:04;;;;;;;11.30;1.90;;;25.30;74.10;;;;;;6126634;23;20057;-75
2022/08/20 08:34:35;;;;;;;8.63;2.40;;;25.40;73.60;;;;;;6126814;23;20002;-75
2022/08/20 08:37:01;;;;;;;13.98;3.03;;;25.50;72.10;;;;;;6126832;23;20033;-75
2022/08/20 08:39:32;;;;;;;7.72;2.20;;;25.50;71.70;;;;;;6127086;23;19995;-75
2022/08/20 08:42:03;;;;;;;11.93;2.13;;;25.60;70.60;;;;;;6126835;23;20012;-76
2022/08/20 08:44:40;;;;;;;7.55;2.00;;;25.60;70.80;;;;;;6126679;23;20325;-75
2022/08/20 08:47:31;;;;;;;9.57;2.45;;;25.70;70.60;;;;;;6126713;23;20054;-74
2022/08/20 08:49:57;;;;;;;9.35;2.33;;;25.80;69.20;;;;;;6113470;23;20009;-75
2022/08/20 08:52:27;;;;;;;13.77;3.03;;;25.90;67.80;;;;;;6126932;23;20002;-75
2022/08/20 08:54:55;;;;;;;15.00;2.40;;;25.90;67.80;;;;;;6126290;23;20353;-76
2022/08/20 08:57:22;;;;;;;11.10;1.80;;;26.00;67.80;;;;;;6126428;23;19998;-76
2022/08/20 09:00:04;;;;;;;9.27;1.90;;;26.10;67.10;;;;;;6126780;23;20445;-76
2022/08/20 09:02:31;;;;;;;10.98;2.45;;;26.10;66.20;;;;;;6126543;23;20056;-75
2022/08/20 09:05:00;;;;;;;10.73;2.08;;;26.20;66.30;;;;;;6126812;23;20440;-76
2022/08/20 09:07:31;;;;;;;11.82;2.58;;;26.30;66.00;;;;;;6126754;23;20006;-76
2022/08/20 09:09:57;;;;;;;8.55;2.10;;;26.30;64.90;;;;;;6126755;23;20093;-76
2022/08/20 09:12:26;;;;;;;11.15;2.47;;;26.40;64.90;;;;;;6126356;23;20021;-76
2022/08/20 09:14:53;;;;;;;9.68;2.25;;;26.50;63.90;;;;;;6100697;23;20073;-74
2022/08/20 09:17:21;;;;;;;9.80;2.13;;;26.60;63.80;;;;;;6126900;23;20013;-76
2022/08/20 09:19:48;;;;;;;11.95;2.40;;;26.70;63.30;;;;;;6126603;23;20025;-76
2022/08/20 09:22:16;;;;;;;17.00;3.20;;;26.70;62.80;;;;;;6126359;23;20013;-76
2022/08/20 09:24:42;;;;;;;13.32;2.88;;;26.80;62.80;;;;;;6126214;23;20006;-76
2022/08/20 09:27:08;;;;;;;8.38;2.13;;;26.90;62.00;;;;;;6126360;23;20002;-75
2022/08/20 09:29:34;;;;;;;15.77;2.50;;;27.00;60.20;;;;;;6126419;23;20018;-77
2022/08/20 09:32:21;;;;;;;10.95;2.13;;;27.10;61.10;;;;;;6126857;23;20002;-75
2022/08/20 09:34:57;;;;;;;10.05;2.53;;;27.10;60.80;;;;;;6126499;23;20018;-75
2022/08/20 09:37:25;;;;;;;10.75;2.40;;;27.20;60.90;;;;;;6126849;23;20002;-77
2022/08/20 09:39:51;;;;;;;10.75;1.85;;;27.30;60.80;;;;;;6126095;23;20002;-74
2022/08/20 09:42:20;;;;;;;7.88;1.92;;;27.30;59.80;;;;;;6126453;23;20028;-75
2022/08/20 09:44:46;;;;;;;11.02;2.10;;;27.50;59.50;;;;;;6126412;23;20006;-75
2022/08/20 09:47:12;;;;;;;7.43;1.88;;;27.60;57.90;;;;;;6126014;23;20002;-77
2022/08/20 09:49:37;;;;;;;9.13;1.75;;;27.70;58.30;;;;;;6128143;23;20005;-76
2022/08/20 09:52:06;;;;;;;9.02;2.17;;;27.80;57.40;;;;;;6128524;23;20006;-76
2022/08/20 09:54:33;;;;;;;10.25;1.73;;;27.80;58.10;;;;;;6128330;23;20009;-75
2022/08/20 09:57:03;;;;;;;9.43;1.92;;;27.90;57.50;;;;;;6128314;23;20006;-75
2022/08/20 09:59:31;;;;;;;8.60;1.88;;;28.00;57.50;;;;;;6128622;23;20073;-75
2022/08/20 10:01:57;;;;;;;11.43;2.25;;;28.10;57.20;;;;;;6128843;23;20084;-77
2022/08/20 10:04:22;;;;;;;10.68;1.90;;;28.20;57.90;;;;;;6128214;23;20072;-76
2022/08/20 10:06:48;;;;;;;13.13;2.35;;;28.30;59.20;;;;;;6128490;23;20006;-77
2022/08/20 10:09:14;;;;;;;8.00;1.92;;;28.20;58.40;;;;;;6128848;23;20006;-77
2022/08/20 10:11:40;;;;;;;9.65;1.88;;;28.20;58.40;;;;;;6128117;23;20009;-78
2022/08/20 10:14:07;;;;;;;11.05;1.90;;;28.20;57.10;;;;;;6128644;23;20032;-77
2022/08/20 10:16:35;;;;;;;12.63;2.25;;;28.20;56.90;;;;;;6128412;23;20014;-77
2022/08/20 11:12:56;;;;;;;4.93;0.93;;;28.60;50.60;;;;;;6123366;23;20101;-76
2022/08/20 11:15:22;;;;;;;2.53;0.85;;;28.60;49.90;;;;;;6127136;23;20389;-74
2022/08/20 11:17:48;;;;;;;4.38;0.80;;;28.50;49.40;;;;;;6127851;23;20002;-76
2022/08/20 11:20:17;;;;;;;2.03;0.60;;;28.60;49.40;;;;;;6127529;23;20432;-75
2022/08/20 11:22:43;;;;;;;3.13;0.60;;;28.60;49.30;;;;;;6127616;23;20049;-76
2022/08/20 11:25:09;;;;;;;1.35;0.60;;;28.50;49.40;;;;;;6127507;23;20002;-76
2022/08/20 11:27:45;;;;;;;4.53;0.80;;;28.60;49.80;;;;;;6127403;23;20014;-76
2022/08/20 11:30:14;;;;;;;1.10;0.65;;;28.70;49.40;;;;;;6127573;23;20087;-75
2022/08/20 11:32:40;;;;;;;2.25;0.70;;;28.80;48.90;;;;;;6127396;23;20085;-76
2022/08/20 11:35:07;;;;;;;3.92;0.75;;;28.90;47.70;;;;;;6127755;23;20073;-76
2022/08/20 11:37:33;;;;;;;2.88;1.05;;;28.90;47.90;;;;;;6127211;23;20493;-75
2022/08/20 11:39:59;;;;;;;4.68;1.48;;;29.00;49.70;;;;;;6127539;23;20018;-76
2022/08/20 11:42:24;;;;;;;1.85;0.70;;;29.00;48.00;;;;;;6127450;23;20082;-76
2022/08/20 11:44:50;;;;;;;2.17;0.60;;;29.10;48.20;;;;;;6127406;23;20098;-76
2022/08/20 11:47:27;;;;;;;4.40;0.40;;;29.10;48.90;;;;;;6127457;23;20353;-75
2022/08/20 11:49:58;;;;;;;2.75;0.70;;;29.20;47.90;;;;;;6127121;23;20005;-75
2022/08/20 11:52:25;;;;;;;1.98;0.52;;;29.20;46.40;;;;;;6127263;23;19998;-76
2022/08/20 11:54:51;;;;;;;2.00;0.73;;;29.30;44.40;;;;;;6127374;23;20017;-76
2022/08/20 11:57:26;;;;;;;1.13;0.57;;;29.30;43.30;;;;;;6126774;23;20194;-76
2022/08/20 11:59:54;;;;;;;2.50;0.60;;;29.40;44.30;;;;;;6124748;23;20109;-75
2022/08/20 12:02:20;;;;;;;2.13;0.60;;;29.40;45.00;;;;;;6123370;23;20048;-75
2022/08/20 12:04:46;;;;;;;1.55;0.52;;;29.40;44.40;;;;;;6123095;23;20010;-75
2022/08/20 12:07:16;;;;;;;3.03;0.60;;;29.40;44.50;;;;;;6124785;23;20057;-74
2022/08/20 12:09:43;;;;;;;1.55;0.60;;;29.40;43.80;;;;;;6125536;23;20325;-76
2022/08/20 12:12:09;;;;;;;2.28;0.50;;;29.50;43.50;;;;;;6125266;23;20018;-75
2022/08/20 12:14:35;;;;;;;3.92;0.60;;;29.50;42.40;;;;;;6125541;23;20333;-75
2022/08/20 12:17:13;;;;;;;3.03;0.50;;;29.60;41.90;;;;;;6125057;23;20002;-74
2022/08/20 12:19:41;;;;;;;1.13;0.30;;;29.60;41.40;;;;;;6125435;23;20001;-75
2022/08/20 12:22:08;;;;;;;2.75;0.40;;;29.70;41.60;;;;;;6124951;23;20002;-75
2022/08/20 12:24:34;;;;;;;0.90;0.50;;;29.70;41.10;;;;;;6126008;23;20001;-74
2022/08/20 12:27:16;;;;;;;3.97;0.47;;;29.80;41.10;;;;;;6125827;23;20001;-74
2022/08/20 12:29:43;;;;;;;;;;;29.80;41.20;;;;;;6126137;23;20009;-74
2022/08/20 12:32:09;;;;;;;1.05;0.40;;;29.80;40.70;;;;;;6125849;23;20231;-75
2022/08/20 12:34:36;;;;;;;2.95;0.20;;;29.80;40.70;;;;;;6125611;23;20002;-75
2022/08/20 12:37:14;;;;;;;1.85;0.40;;;29.90;40.90;;;;;;6125565;23;20025;-75
2022/08/20 12:39:42;;;;;;;2.63;0.30;;;29.90;41.10;;;;;;6125852;23;19998;-74
2022/08/20 12:42:09;;;;;;;0.73;0.30;;;29.90;40.60;;;;;;6125506;23;20381;-75
2022/08/20 12:44:35;;;;;;;0.88;0.40;;;29.90;40.20;;;;;;6125225;23;19998;-74
2022/08/20 12:47:13;;;;;;;1.60;0.40;;;30.00;41.20;;;;;;6122813;23;20092;-74
2022/08/20 12:49:42;;;;;;;1.35;0.40;;;30.00;41.40;;;;;;6122178;23;20006;-75
2022/08/20 12:52:08;;;;;;;1.63;0.40;;;30.10;41.30;;;;;;6124748;23;20017;-75
2022/08/20 12:54:34;;;;;;;0.65;0.30;;;30.10;40.70;;;;;;6125531;23;20069;-75
2022/08/20 12:57:00;;;;;;;0.20;0.20;;;30.10;40.80;;;;;;6125368;23;20026;-75
2022/08/20 12:59:26;;;;;;;0.85;0.25;;;30.10;40.80;;;;;;6125580;23;20002;-75
2022/08/20 13:01:53;;;;;;;0.50;0.30;;;30.10;40.90;;;;;;6125448;23;20002;-74
2022/08/20 13:04:19;;;;;;;0.52;0.30;;;30.20;40.70;;;;;;6124965;23;20101;-75
2022/08/20 13:06:46;;;;;;;0.22;0.22;;;30.20;40.60;;;;;;6125384;23;19998;-75
2022/08/20 13:09:12;;;;;;;0.95;0.30;;;30.20;40.60;;;;;;6125583;23;20045;-75
2022/08/20 13:11:37;;;;;;;0.30;0.15;;;30.30;40.80;;;;;;6125274;23;20073;-76
2022/08/20 13:14:03;;;;;;;2.05;0.38;;;30.30;40.90;;;;;;6125196;23;20014;-74
2022/08/20 13:16:29;;;;;;;0.40;0.40;;;30.40;40.40;;;;;;6125038;23;20013;-75
2022/08/20 13:18:55;;;;;;;0.20;0.20;;;30.30;40.10;;;;;;6125176;23;20374;-76
2022/08/20 13:21:20;;;;;;;0.30;0.30;;;30.40;39.70;;;;;;6125490;23;20005;-75
2022/08/20 13:23:46;;;;;;;0.32;0.20;;;30.30;39.30;;;;;;6125159;23;20078;-76
2022/08/20 13:26:12;;;;;;;0.20;0.20;;;30.30;39.30;;;;;;6124698;23;20428;-76
2022/08/20 13:28:37;;;;;;;0.28;0.20;;;30.30;39.70;;;;;;6125241;23;20006;-75
2022/08/20 13:31:03;;;;;;;2.33;0.32;;;30.20;39.70;;;;;;6125267;23;20306;-76
2022/08/20 13:33:29;;;;;;;0.52;0.30;;;30.20;40.30;;;;;;6124553;23;20002;-76
2022/08/20 13:35:55;;;;;;;0.13;0.13;;;30.20;40.00;;;;;;6124951;23;20022;-76
2022/08/20 13:38:22;;;;;;;2.58;0.30;;;30.20;40.90;;;;;;6125040;23;20074;-76
2022/08/20 13:40:47;;;;;;;0.50;0.28;;;30.10;41.00;;;;;;6125029;23;20018;-75
2022/08/20 13:43:13;;;;;;;20.08;1.55;;;30.10;40.70;;;;;;6125771;23;20389;-72
2022/08/20 13:45:40;;;;;;;1.40;0.40;;;30.10;41.00;;;;;;6125584;23;20053;-70
2022/08/20 13:48:07;;;;;;;7.15;0.40;;;30.10;41.30;;;;;;6125618;23;20002;-73
2022/08/20 13:50:34;;;;;;;0.60;0.25;;;30.10;41.60;;;;;;6126272;23;20002;-73